SAN weather

San Diego International Airport
San Diego, California, United States

Public forecast

Using degrees Fahrenheit for public forecast. Weather courtesy of forecast.io.

Current aviation weather report (METAR) for San Diego International Airport

Retrieved 2020/08/05 18:51 UTC (11 minutes ago):

KSAN 051851Z 23008KT 10SM SCT018 SCT250 22/14 A2998 RMK AO2 SLP152 T02220144

Aviation forecast (TAF) for San Diego International Airport

Retrieved 2020/08/05 18:22 UTC (40 minutes ago):

TAF KSAN 051720Z 0518/0624 25009KT P6SM SCT018 FM060400 23008KT P6SM OVC015 FM061800 23010KT P6SM SCT020